Time;durP1;ratioP1;P1;durP2;ratioP2;P2;SDS_P1;SDS_P2;PMS_P1;PMS_P2;Temp;Humidity;BMP_temperature;BMP_pressure;BME280_temperature;BME280_humidity;BME280_pressure;Samples;Min_cycle;Max_cycle;Signal;HPM_P1;HPM_P2
2021/03/24 00:01:43;;;;;;;19.67;10.07;;;;;;;3.80;63.91;99185.78;5051788;28;20036;-50
2021/03/24 00:04:08;;;;;;;16.70;9.70;;;;;;;3.83;63.61;99195.16;5051644;28;20078;-51
2021/03/24 00:06:34;;;;;;;16.60;9.20;;;;;;;3.64;64.16;99193.78;5051419;28;20386;-51
2021/03/24 00:09:00;;;;;;;14.50;9.15;;;;;;;3.77;63.84;99193.22;5052093;28;20029;-48
2021/03/24 00:11:26;;;;;;;16.52;9.20;;;;;;;3.57;64.36;99187.56;5052146;28;20029;-50
2021/03/24 00:13:51;;;;;;;15.32;9.30;;;;;;;3.91;64.18;99192.47;5051661;28;20029;-48
2021/03/24 00:16:17;;;;;;;15.80;8.70;;;;;;;3.71;64.17;99189.44;5051412;28;20029;-49
2021/03/24 00:18:42;;;;;;;16.52;8.98;;;;;;;3.53;64.17;99192.34;5051392;28;20023;-47
2021/03/24 00:21:08;;;;;;;15.40;8.90;;;;;;;3.71;63.85;99192.09;5051058;28;20037;-51
2021/03/24 00:23:33;;;;;;;14.73;8.75;;;;;;;3.80;64.07;99187.59;5051753;28;20025;-51
2021/03/24 00:25:59;;;;;;;16.05;9.30;;;;;;;3.93;62.99;99179.97;5051897;28;20033;-52
2021/03/24 00:28:24;;;;;;;15.18;8.88;;;;;;;3.91;63.85;99185.41;5051622;28;20408;-52
2021/03/24 00:30:50;;;;;;;16.25;8.88;;;;;;;4.06;62.79;99182.84;5051176;28;20032;-49
2021/03/24 00:33:22;;;;;;;14.77;8.90;;;;;;;3.98;63.46;99188.16;5051219;28;20032;-49
2021/03/24 00:35:48;;;;;;;16.75;9.75;;;;;;;3.94;63.64;99175.50;5051558;28;20087;-50
2021/03/24 00:38:14;;;;;;;15.52;8.90;;;;;;;3.76;64.10;99183.69;5051517;28;20120;-48
2021/03/24 00:41:01;;;;;;;14.90;9.10;;;;;;;3.75;64.04;99182.88;5051477;28;20104;-50
2021/03/24 00:43:26;;;;;;;17.33;9.38;;;;;;;3.72;64.18;99185.84;5050977;28;20037;-52
2021/03/24 00:45:52;;;;;;;15.07;9.18;;;;;;;3.65;65.43;99187.50;5050713;28;20071;-49
2021/03/24 00:48:25;;;;;;;15.18;9.20;;;;;;;3.76;66.55;99186.31;5051115;28;20040;-52
2021/03/24 00:50:51;;;;;;;15.88;9.52;;;;;;;3.76;66.35;99188.94;5051316;28;20044;-48
2021/03/24 00:53:16;;;;;;;15.00;9.25;;;;;;;3.72;66.14;99181.38;5051255;28;20029;-53
2021/03/24 00:55:42;;;;;;;18.35;9.80;;;;;;;3.80;65.31;99183.16;5049915;28;20029;-48
2021/03/24 00:58:08;;;;;;;14.20;8.60;;;;;;;3.59;65.63;99175.06;5051264;28;20036;-47
2021/03/24 01:00:35;;;;;;;15.82;9.02;;;;;;;3.47;66.79;99175.44;5051374;28;20036;-49
2021/03/24 01:03:00;;;;;;;15.68;9.35;;;;;;;3.57;65.22;99171.78;5051027;28;20033;-48
2021/03/24 01:05:26;;;;;;;16.35;8.85;;;;;;;3.55;65.45;99165.88;5050710;28;20560;-47
2021/03/24 01:07:54;;;;;;;17.05;8.77;;;;;;;3.60;65.32;99164.34;5049409;28;20044;-47
2021/03/24 01:10:30;;;;;;;15.18;9.05;;;;;;;3.90;65.05;99167.97;5049544;28;20508;-48
2021/03/24 01:12:55;;;;;;;16.23;9.07;;;;;;;3.92;63.78;99168.63;5050725;28;20025;-49
2021/03/24 01:15:21;;;;;;;14.93;8.30;;;;;;;3.84;64.64;99166.00;5050844;28;20040;-48
2021/03/24 01:17:47;;;;;;;16.42;8.90;;;;;;;3.76;64.79;99165.25;5051108;28;20024;-49
2021/03/24 01:20:13;;;;;;;16.60;8.73;;;;;;;3.62;64.74;99162.38;5050488;28;20389;-49
2021/03/24 01:22:39;;;;;;;16.63;8.75;;;;;;;3.69;64.88;99162.50;5050623;28;20024;-48
2021/03/24 01:25:05;;;;;;;17.08;8.90;;;;;;;3.82;64.73;99156.66;5050660;28;20029;-48
2021/03/24 01:27:30;;;;;;;16.05;8.75;;;;;;;3.78;65.20;99136.94;5050533;28;20017;-48
2021/03/24 01:29:56;;;;;;;12.60;7.78;;;;;;;3.98;64.53;99145.19;5050910;28;20105;-49
2021/03/24 01:32:21;;;;;;;11.93;7.40;;;;;;;3.64;65.56;99134.06;5050503;28;20036;-48
2021/03/24 01:34:47;;;;;;;15.43;8.23;;;;;;;3.76;65.30;99131.03;5050677;28;20463;-50
2021/03/24 01:37:12;;;;;;;13.13;7.40;;;;;;;3.79;64.87;99134.16;5050449;28;20029;-48
2021/03/24 01:39:37;;;;;;;13.95;7.95;;;;;;;3.98;64.46;99135.50;5050523;28;20039;-49
2021/03/24 01:42:03;;;;;;;11.43;7.45;;;;;;;4.14;63.07;99133.75;5048838;28;20090;-47
2021/03/24 01:44:29;;;;;;;13.45;7.78;;;;;;;4.04;63.35;99131.34;5050075;28;20031;-48
2021/03/24 01:46:54;;;;;;;13.43;7.57;;;;;;;4.05;63.33;99120.63;5049719;28;20032;-49
2021/03/24 01:49:27;;;;;;;13.73;7.72;;;;;;;3.92;63.95;99130.91;5050436;28;20435;-48
2021/03/24 01:51:56;;;;;;;16.27;8.35;;;;;;;4.09;62.71;99127.19;5049945;28;20033;-48
2021/03/24 01:54:29;;;;;;;;;;;;;;;4.09;63.76;99129.00;5050946;28;20033;-48
2021/03/24 01:57:04;;;;;;;12.30;7.40;;;;;;;4.00;62.92;99136.16;5052073;28;19958;-49
2021/03/24 01:59:29;;;;;;;14.50;7.80;;;;;;;4.04;62.15;99134.78;5054385;28;20032;-49
2021/03/24 02:01:55;;;;;;;11.90;7.43;;;;;;;4.01;62.66;99137.78;5054317;28;20025;-51
2021/03/24 02:04:21;;;;;;;13.55;7.35;;;;;;;4.21;62.29;99135.50;5054189;28;20507;-48
2021/03/24 02:07:16;;;;;;;13.02;7.32;;;;;;;4.05;62.71;99123.25;5053939;28;20049;-48
2021/03/24 02:09:49;;;;;;;13.38;7.28;;;;;;;4.02;62.17;99126.25;5037693;28;20160;-38
2021/03/24 02:12:20;;;;;;;13.50;7.25;;;;;;;4.07;62.25;99120.44;5036462;28;20062;-38
2021/03/24 02:14:54;;;;;;;11.57;7.20;;;;;;;4.02;62.25;99128.09;5052812;28;20029;-38
2021/03/24 02:17:22;;;;;;;12.05;7.03;;;;;;;4.14;62.23;99123.22;5052690;28;20025;-37
2021/03/24 02:20:19;;;;;;;12.02;7.25;;;;;;;4.21;61.96;99127.59;5052447;28;20032;-38
2021/03/24 02:22:50;;;;;;;11.60;7.57;;;;;;;4.16;61.75;99123.84;5030216;28;20047;-39
2021/03/24 02:25:28;;;;;;;11.30;7.03;;;;;;;3.86;62.46;99121.91;5052762;28;20016;-38
2021/03/24 02:27:54;;;;;;;10.85;6.63;;;;;;;4.21;61.90;99109.16;5053156;28;20028;-39
2021/03/24 02:30:30;;;;;;;10.80;6.97;;;;;;;4.06;62.75;99109.09;5035519;28;20119;-38
2021/03/24 02:32:58;;;;;;;11.82;6.82;;;;;;;4.20;62.52;99115.41;5052520;28;20029;-38
2021/03/24 02:35:31;;;;;;;9.60;6.32;;;;;;;4.29;62.07;99108.25;5036174;28;20031;-38
2021/03/24 02:37:59;;;;;;;12.18;6.68;;;;;;;4.28;61.15;99110.09;5036025;28;20066;-37
2021/03/24 02:40:25;;;;;;;11.27;6.70;;;;;;;4.41;61.22;99109.47;5036007;28;20028;-38
2021/03/24 02:42:50;;;;;;;9.70;6.30;;;;;;;4.10;60.87;99113.03;5052411;28;20040;-37
2021/03/24 02:45:19;;;;;;;11.52;6.25;;;;;;;4.29;60.56;99111.72;5036065;28;20037;-37
2021/03/24 02:47:44;;;;;;;10.48;6.55;;;;;;;4.20;60.88;99096.97;5050594;28;20024;-37
2021/03/24 02:50:11;;;;;;;11.02;6.43;;;;;;;4.34;61.15;99105.91;5051953;28;20040;-37
2021/03/24 02:52:36;;;;;;;10.35;6.30;;;;;;;4.19;61.18;99097.13;5051906;28;20040;-38
2021/03/24 02:55:03;;;;;;;11.77;6.05;;;;;;;4.01;61.93;99102.72;5035453;28;20021;-37
2021/03/24 02:57:28;;;;;;;9.95;6.10;;;;;;;4.28;60.66;99109.25;5035411;28;20020;-37
2021/03/24 02:59:54;;;;;;;9.82;6.00;;;;;;;4.28;60.64;99112.72;5051971;28;20447;-37
2021/03/24 03:02:20;;;;;;;9.73;6.03;;;;;;;3.82;62.44;99110.09;5053090;28;20032;-38
2021/03/24 03:04:52;;;;;;;11.80;6.57;;;;;;;3.90;62.13;99107.44;5051735;28;20028;-38
2021/03/24 03:07:24;;;;;;;9.95;6.30;;;;;;;3.80;61.63;99098.13;5050505;28;20029;-49
2021/03/24 03:09:51;;;;;;;12.38;6.07;;;;;;;3.85;62.29;99101.03;5035164;28;20036;-49
2021/03/24 03:12:38;;;;;;;8.85;5.70;;;;;;;3.73;62.93;99105.88;5053160;28;20461;-50
2021/03/24 03:15:15;;;;;;;9.23;5.57;;;;;;;3.63;62.19;99113.19;5035295;28;20017;-48
2021/03/24 03:17:41;;;;;;;11.23;5.72;;;;;;;3.89;61.71;99102.34;5053181;28;20100;-49
2021/03/24 03:20:07;;;;;;;10.30;6.43;;;;;;;3.74;62.55;99109.34;5052908;28;20032;-48
2021/03/24 03:22:35;;;;;;;8.95;6.07;;;;;;;3.88;63.31;99117.31;5044812;28;20022;-52
2021/03/24 03:25:11;;;;;;;10.43;6.00;;;;;;;3.60;63.64;99105.63;5015583;28;20037;-49
2021/03/24 03:27:36;;;;;;;9.30;6.22;;;;;;;3.72;64.85;99114.78;5014645;28;20024;-51
2021/03/24 03:30:06;;;;;;;8.85;5.45;;;;;;;3.63;65.84;99115.81;5031265;28;20033;-49
2021/03/24 03:32:31;;;;;;;8.95;5.75;;;;;;;3.63;65.88;99111.38;5031657;28;20029;-50
2021/03/24 03:34:59;;;;;;;8.63;5.93;;;;;;;3.47;67.08;99109.66;5014112;28;20036;-49
2021/03/24 03:37:25;;;;;;;9.88;6.13;;;;;;;3.38;66.81;99110.69;5030770;28;20473;-51
2021/03/24 03:39:50;;;;;;;29.95;15.02;;;;;;;3.39;66.89;99111.50;5032576;28;20021;-48
2021/03/24 03:42:16;;;;;;;70.80;32.72;;;;;;;3.70;65.74;99114.13;5031288;28;20032;-50
2021/03/24 03:44:41;;;;;;;14.05;7.80;;;;;;;3.66;66.55;99115.47;5032294;28;20481;-48
2021/03/24 03:47:11;;;;;;;11.07;6.45;;;;;;;3.75;65.51;99108.34;5030639;28;20044;-50
2021/03/24 03:49:37;;;;;;;9.15;5.93;;;;;;;3.99;65.01;99104.72;5030846;28;20420;-51
2021/03/24 03:52:14;;;;;;;9.93;6.13;;;;;;;3.84;65.95;99108.09;5030896;28;20167;-52
2021/03/24 03:55:02;;;;;;;8.38;6.13;;;;;;;3.62;66.28;99111.56;5032731;28;20219;-50
2021/03/24 03:57:38;;;;;;;12.52;6.75;;;;;;;3.34;67.07;99106.78;5032255;28;20477;-49
2021/03/24 04:00:12;;;;;;;11.20;6.22;;;;;;;3.27;67.59;99111.06;5030979;28;20478;-51
2021/03/24 04:02:47;;;;;;;12.00;6.97;;;;;;;3.28;67.61;99112.72;5030720;28;20135;-50
2021/03/24 04:05:17;;;;;;;18.90;9.60;;;;;;;3.41;67.45;99113.00;5014469;28;20049;-48
2021/03/24 04:07:54;;;;;;;12.73;7.93;;;;;;;3.39;67.95;99116.75;5014639;28;20033;-51
2021/03/24 04:10:20;;;;;;;11.55;6.85;;;;;;;3.21;67.31;99098.63;5030443;28;20029;-49
2021/03/24 04:12:45;;;;;;;12.88;7.10;;;;;;;3.56;67.35;99115.72;5014347;28;20025;-51
2021/03/24 04:15:16;;;;;;;17.20;7.55;;;;;;;3.66;67.09;99113.66;5014299;28;20034;-49
2021/03/24 04:17:46;;;;;;;10.85;6.63;;;;;;;3.57;66.00;99106.00;5030713;28;20040;-48
2021/03/24 04:20:12;;;;;;;12.13;7.63;;;;;;;3.34;67.45;99109.41;5014453;28;20079;-49
2021/03/24 04:22:38;;;;;;;11.93;7.25;;;;;;;3.32;67.73;99116.66;5040335;28;20095;-49
2021/03/24 04:25:04;;;;;;;12.18;7.57;;;;;;;3.48;67.67;99127.09;5051530;28;20094;-51
2021/03/24 04:27:32;;;;;;;13.35;7.82;;;;;;;3.40;67.03;99118.41;5051444;28;20025;-49
2021/03/24 04:30:12;;;;;;;13.45;7.60;;;;;;;3.32;67.94;99114.84;5034230;28;20029;-50
2021/03/24 04:32:38;;;;;;;13.25;7.72;;;;;;;3.22;67.71;99116.88;5049944;28;20130;-50
2021/03/24 04:35:04;;;;;;;11.68;7.82;;;;;;;3.25;68.43;99116.50;5050554;28;20025;-49
2021/03/24 04:37:41;;;;;;;12.18;7.90;;;;;;;3.33;68.75;99113.00;5049485;28;20679;-50
2021/03/24 04:40:15;;;;;;;12.95;7.53;;;;;;;3.37;68.67;99114.34;5032879;28;20029;-48
2021/03/24 04:42:54;;;;;;;12.98;7.88;;;;;;;3.33;68.67;99115.66;5050727;28;20469;-49
2021/03/24 04:45:38;;;;;;;16.48;8.98;;;;;;;3.32;68.25;99114.03;5048376;28;20100;-53
2021/03/24 04:48:09;;;;;;;14.85;8.70;;;;;;;3.64;67.92;99107.75;5049938;28;20116;-51
2021/03/24 04:51:01;;;;;;;14.55;8.38;;;;;;;3.59;67.09;99110.09;5026315;28;20128;-50
2021/03/24 04:53:29;;;;;;;16.50;8.75;;;;;;;3.63;67.43;99121.09;5004640;28;20060;-52
2021/03/24 04:55:55;;;;;;;16.00;8.88;;;;;;;3.45;67.38;99119.53;5012709;28;20033;-51
2021/03/24 04:58:35;;;;;;;12.32;8.18;;;;;;;3.22;67.78;99122.13;5012689;28;20021;-50
2021/03/24 05:01:15;;;;;;;13.73;7.47;;;;;;;3.18;68.58;99125.25;5030174;28;20390;-50
2021/03/24 05:03:42;;;;;;;15.13;7.50;;;;;;;3.37;67.52;99126.63;5030156;28;20122;-52
2021/03/24 05:06:36;;;;;;;17.17;7.78;;;;;;;3.72;66.57;99133.19;5012349;28;20054;-48
2021/03/24 05:09:03;;;;;;;48.35;25.95;;;;;;;3.80;66.02;99135.78;5023949;28;20033;-50
2021/03/24 05:11:37;;;;;;;14.75;8.50;;;;;;;3.60;66.78;99135.41;5028651;28;20040;-38
2021/03/24 05:14:25;;;;;;;13.00;8.05;;;;;;;4.00;66.06;99143.22;5029107;28;20056;-38
2021/03/24 05:16:51;;;;;;;12.95;8.65;;;;;;;3.91;65.86;99147.72;5028642;28;20022;-38
2021/03/24 05:19:25;;;;;;;19.83;8.60;;;;;;;3.95;65.69;99150.84;5012262;28;20044;-37
2021/03/24 05:22:09;;;;;;;13.48;8.23;;;;;;;3.78;66.03;99150.13;5030960;28;20025;-37
2021/03/24 05:24:36;;;;;;;12.60;7.90;;;;;;;3.91;65.99;99156.44;5049769;28;20068;-38
2021/03/24 05:27:05;;;;;;;16.35;8.60;;;;;;;4.05;65.40;99154.84;5031706;28;20499;-37
2021/03/24 05:29:36;;;;;;;12.02;7.72;;;;;;;3.99;65.43;99162.66;5048448;28;20071;-38
2021/03/24 05:32:02;;;;;;;10.93;7.70;;;;;;;3.69;66.25;99154.59;5032019;28;20412;-38
2021/03/24 05:34:29;;;;;;;11.45;7.47;;;;;;;3.91;65.69;99160.88;5031931;28;20033;-38
2021/03/24 05:36:55;;;;;;;12.73;8.07;;;;;;;4.09;65.70;99161.44;5032325;28;20044;-38
2021/03/24 05:39:33;;;;;;;22.75;11.63;;;;;;;4.38;64.91;99159.88;5031935;28;20115;-38
2021/03/24 05:42:20;;;;;;;31.60;17.38;;;;;;;4.23;65.38;99165.09;5049096;28;20438;-48
2021/03/24 05:45:07;;;;;;;15.25;9.02;;;;;;;4.07;66.30;99163.44;5042024;28;20021;-48
2021/03/24 05:47:56;;;;;;;15.18;8.73;;;;;;;4.15;66.28;99169.59;5047802;28;20017;-49
2021/03/24 05:50:40;;;;;;;12.45;8.32;;;;;;;4.41;65.33;99172.69;5045424;28;20066;-51
2021/03/24 05:53:29;;;;;;;13.68;8.50;;;;;;;4.23;65.54;99165.09;5034953;28;20065;-39
2021/03/24 05:56:02;;;;;;;17.23;10.55;;;;;;;6.36;61.56;99167.06;5049650;28;20033;-38
2021/03/24 05:59:08;;;;;;;16.10;9.95;;;;;;;6.58;67.03;99173.13;5038844;28;20029;-37
2021/03/24 06:02:01;;;;;;;20.20;10.77;;;;;;;6.69;60.33;99173.63;4981311;28;20064;-38
2021/03/24 06:04:40;;;;;;;19.98;10.40;;;;;;;7.03;58.17;99180.78;5030636;28;20067;-38
2021/03/24 06:07:31;;;;;;;17.58;10.50;;;;;;;6.61;59.19;99174.59;5037347;28;20469;-51
2021/03/24 06:10:08;;;;;;;16.98;10.68;;;;;;;6.82;59.57;99184.31;5039985;28;20040;-38
2021/03/24 06:13:00;;;;;;;15.50;9.82;;;;;;;6.57;59.37;99190.03;5039404;28;20495;-38
2021/03/24 06:15:28;;;;;;;16.73;10.40;;;;;;;6.64;59.48;99190.91;5031249;28;20037;-49
2021/03/24 06:18:32;;;;;;;17.00;9.90;;;;;;;6.39;59.98;99194.94;5040215;28;20020;-38
2021/03/24 06:21:07;;;;;;;16.58;9.88;;;;;;;6.84;59.27;99191.03;4977651;28;20424;-38
2021/03/24 06:23:56;;;;;;;23.02;13.75;;;;;;;7.02;58.30;99195.00;5026520;28;20037;-38
2021/03/24 06:26:27;;;;;;;19.15;10.98;;;;;;;6.29;60.02;99192.63;5032249;28;20442;-38
2021/03/24 06:29:18;;;;;;;16.95;10.75;;;;;;;6.68;60.23;99201.88;5038674;28;20033;-38
2021/03/24 06:32:02;;;;;;;17.15;10.02;;;;;;;6.93;58.84;99204.94;5040419;28;20382;-51
2021/03/24 06:35:06;;;;;;;17.50;11.02;;;;;;;7.03;59.49;99215.19;5036939;28;20091;-38
2021/03/24 06:37:43;;;;;;;20.63;10.82;;;;;;;6.99;59.11;99216.59;5038510;28;20087;-51
2021/03/24 06:40:39;;;;;;;20.10;10.30;;;;;;;7.09;58.87;99218.88;5038403;28;20025;-49
2021/03/24 06:43:35;;;;;;;17.95;10.85;;;;;;;7.39;58.55;99230.06;5041879;28;20029;-49
2021/03/24 06:46:22;;;;;;;15.90;8.98;;;;;;;6.95;57.54;99228.53;5040872;28;20024;-49
2021/03/24 06:48:50;;;;;;;15.90;9.35;;;;;;;6.87;58.35;99226.84;5043661;28;20017;-38
2021/03/24 06:51:58;;;;;;;10.70;6.93;;;;;;;5.78;60.09;99241.00;5041698;28;20122;-37
2021/03/24 06:54:39;;;;;;;14.15;8.57;;;;;;;5.00;64.16;99256.34;5040265;28;20029;-38
2021/03/24 06:57:42;;;;;;;18.80;11.23;;;;;;;4.48;67.65;99255.31;5052529;28;20056;-38
2021/03/24 07:00:22;;;;;;;18.73;11.90;;;;;;;3.89;69.79;99269.00;5052612;28;20024;-38
2021/03/24 07:03:01;;;;;;;22.42;12.88;;;;;;;4.41;69.28;99278.06;5051337;28;20029;-51
2021/03/24 07:05:39;;;;;;;22.67;13.85;;;;;;;4.10;69.89;99276.28;5030802;28;20133;-50
2021/03/24 07:08:07;;;;;;;26.02;13.65;;;;;;;4.07;70.93;99276.66;5015296;28;20337;-37
2021/03/24 07:10:35;;;;;;;28.65;13.90;;;;;;;4.17;70.01;99259.78;5032268;28;20025;-52
2021/03/24 07:13:19;;;;;;;21.27;12.50;;;;;;;4.38;69.51;99296.88;5030865;28;20026;-52
2021/03/24 07:15:56;;;;;;;26.02;14.23;;;;;;;4.54;69.41;99298.59;5032202;28;20431;-40
2021/03/24 07:18:38;;;;;;;23.15;13.32;;;;;;;4.21;70.58;99304.06;5014972;28;20025;-48
2021/03/24 07:21:10;;;;;;;23.05;13.20;;;;;;;3.71;72.18;99303.47;5030885;28;20190;-51
2021/03/24 07:23:36;;;;;;;24.58;13.88;;;;;;;3.28;73.94;99320.50;5047768;28;20025;-54
2021/03/24 07:26:26;;;;;;;25.63;11.13;;;;;;;2.82;75.13;99330.69;5051821;28;20031;-49
2021/03/24 07:29:07;;;;;;;13.98;6.53;;;;;;;1.79;76.41;99352.72;5035407;28;20037;-51
2021/03/24 07:31:39;;;;;;;;;;;;;;;1.99;76.72;99358.56;5052405;28;20040;-39
2021/03/24 07:34:25;;;;;;;;;;;;;;;2.20;76.56;99360.78;5043010;28;19979;-52
2021/03/24 07:37:27;;;;;;;14.15;7.45;;;;;;;2.14;76.41;99371.91;5031821;28;19935;-40
2021/03/24 07:40:16;;;;;;;15.00;7.80;;;;;;;2.34;74.98;99386.44;5038910;28;20020;-52
2021/03/24 07:43:01;;;;;;;14.15;7.97;;;;;;;1.97;76.05;99399.06;5041049;28;20123;-40
2021/03/24 07:45:44;;;;;;;10.23;5.63;;;;;;;1.59;77.54;99401.97;5031550;28;20021;-39
2021/03/24 07:48:28;;;;;;;9.70;5.75;;;;;;;1.22;78.78;99416.13;5030938;28;20458;-39
2021/03/24 07:51:09;;;;;;;11.13;5.75;;;;;;;1.74;76.75;99416.16;5030106;28;20026;-50
2021/03/24 07:53:44;;;;;;;8.88;5.15;;;;;;;1.62;77.21;99419.19;5028621;28;20454;-45
2021/03/24 07:56:22;;;;;;;8.95;4.63;;;;;;;1.43;77.40;99428.91;5046052;28;20037;-51
2021/03/24 07:59:15;;;;;;;6.57;3.88;;;;;;;1.65;76.06;99439.88;5029180;28;20482;-52
2021/03/24 08:01:52;;;;;;;7.50;3.88;;;;;;;1.63;76.49;99439.19;5030535;28;20177;-52
2021/03/24 08:04:26;;;;;;;5.68;3.65;;;;;;;1.80;76.21;99446.19;5030549;28;20045;-40
2021/03/24 08:07:19;;;;;;;5.35;3.70;;;;;;;1.73;75.86;99453.88;5037755;28;20051;-41
2021/03/24 08:09:51;;;;;;;6.90;4.05;;;;;;;1.96;75.03;99461.22;5048609;28;20166;-41
2021/03/24 08:12:30;;;;;;;5.95;3.88;;;;;;;1.87;76.35;99476.09;5050195;28;20089;-42
2021/03/24 08:14:58;;;;;;;5.22;3.63;;;;;;;1.79;75.68;99477.84;5050336;28;20108;-41
2021/03/24 08:18:01;;;;;;;4.90;3.40;;;;;;;1.76;76.36;99495.53;5050040;28;20452;-41
2021/03/24 08:20:35;;;;;;;4.28;3.05;;;;;;;2.15;74.30;99500.41;5049128;28;20408;-41
2021/03/24 08:23:23;;;;;;;5.95;3.58;;;;;;;1.79;76.17;99498.81;5044670;28;20035;-41
2021/03/24 08:25:59;;;;;;;5.45;3.50;;;;;;;1.61;75.99;99506.72;5034646;28;20029;-42
2021/03/24 08:29:06;;;;;;;5.45;3.20;;;;;;;1.99;75.21;99512.59;5029083;28;20122;-56
2021/03/24 08:31:53;;;;;;;6.68;4.50;;;;;;;2.29;74.40;99521.81;5021428;28;20049;-55
2021/03/24 08:34:21;;;;;;;7.50;4.30;;;;;;;1.94;74.99;99516.50;5030013;28;20032;-55
2021/03/24 08:37:10;;;;;;;6.57;3.70;;;;;;;2.08;74.69;99524.81;5029647;28;20481;-40
2021/03/24 08:40:12;;;;;;;7.47;4.93;;;;;;;2.18;73.09;99522.06;5009449;28;20564;-42
2021/03/24 08:43:02;;;;;;;8.68;4.90;;;;;;;2.15;73.94;99531.06;5029730;28;20014;-42
2021/03/24 08:45:38;;;;;;;9.23;4.90;;;;;;;2.34;74.29;99536.13;5035906;28;20090;-53
2021/03/24 08:48:11;;;;;;;7.53;4.18;;;;;;;1.79;74.92;99531.16;5038778;28;20120;-53
2021/03/24 08:50:42;;;;;;;9.20;5.10;;;;;;;1.50;76.36;99531.38;5021782;28;20048;-53
2021/03/24 08:53:10;;;;;;;7.55;4.78;;;;;;;1.34;76.05;99543.38;5029437;28;20091;-54
2021/03/24 08:55:36;;;;;;;8.20;4.85;;;;;;;1.72;75.34;99541.41;5029456;28;20033;-52
2021/03/24 08:58:10;;;;;;;6.40;4.15;;;;;;;1.97;74.12;99544.25;5029503;28;20144;-52
2021/03/24 09:00:58;;;;;;;7.93;4.15;;;;;;;1.79;74.76;99541.66;5029397;28;20029;-53
2021/03/24 09:03:34;;;;;;;7.05;4.35;;;;;;;1.83;74.15;99537.75;5029367;28;20129;-54
2021/03/24 09:06:03;;;;;;;9.60;5.28;;;;;;;1.42;76.56;99542.63;5027060;28;20049;-54
2021/03/24 09:08:51;;;;;;;9.18;5.28;;;;;;;1.53;76.68;99546.84;5029321;28;20047;-54
2021/03/24 09:11:39;;;;;;;10.38;5.85;;;;;;;1.49;76.54;99554.16;5028616;28;20021;-52
2021/03/24 09:14:38;;;;;;;9.73;6.15;;;;;;;1.43;75.70;99565.25;5028289;28;20052;-53
2021/03/24 09:17:27;;;;;;;9.45;5.68;;;;;;;1.00;76.01;99561.50;5014441;28;20036;-53
2021/03/24 09:20:24;;;;;;;9.25;5.72;;;;;;;1.15;76.88;99581.03;5027972;28;20075;-52
2021/03/24 09:23:04;;;;;;;9.18;5.25;;;;;;;1.35;76.59;99587.00;5039494;28;20033;-54
2021/03/24 09:25:48;;;;;;;8.60;5.37;;;;;;;1.56;76.07;99594.56;5047743;28;20028;-53
2021/03/24 09:28:41;;;;;;;10.20;6.22;;;;;;;1.65;74.74;99599.88;5048859;28;20036;-42
2021/03/24 09:31:28;;;;;;;11.35;6.15;;;;;;;1.70;74.73;99611.59;5041635;28;20075;-43
2021/03/24 09:34:03;;;;;;;11.73;6.55;;;;;;;1.37;76.10;99610.41;5049236;28;20116;-51
2021/03/24 09:36:47;;;;;;;14.45;7.07;;;;;;;1.53;75.75;99607.97;5032010;28;20032;-52
2021/03/24 09:39:41;;;;;;;13.60;7.45;;;;;;;1.63;75.94;99594.78;5048732;28;20076;-55
2021/03/24 09:42:23;;;;;;;12.93;6.22;;;;;;;2.35;73.37;99606.03;5047775;28;20036;-52
2021/03/24 09:44:56;;;;;;;8.25;4.90;;;;;;;2.34;73.16;99608.81;5047771;28;20053;-54
2021/03/24 09:47:49;;;;;;;6.68;3.90;;;;;;;2.21;72.82;99605.78;5048608;28;20029;-54
2021/03/24 09:50:18;;;;;;;7.20;3.38;;;;;;;2.23;73.26;99612.53;5047051;28;20044;-42
2021/03/24 09:53:14;;;;;;;5.47;2.90;;;;;;;2.25;71.89;99618.47;5048715;28;20032;-42
2021/03/24 09:55:55;;;;;;;7.05;3.60;;;;;;;2.38;70.86;99614.59;5048948;28;20037;-42
2021/03/24 09:58:24;;;;;;;6.35;3.03;;;;;;;2.36;72.13;99614.75;5049355;28;20393;-42
2021/03/24 10:01:08;;;;;;;4.57;2.87;;;;;;;2.04;72.21;99623.22;5049835;28;20037;-55
2021/03/24 10:03:41;;;;;;;4.55;3.00;;;;;;;2.25;71.95;99623.72;5049881;28;20140;-54
2021/03/24 10:06:11;;;;;;;4.50;2.80;;;;;;;2.26;71.34;99614.84;5049013;28;20128;-53
2021/03/24 10:08:40;;;;;;;5.25;2.97;;;;;;;2.46;70.07;99612.03;5032488;28;20040;-54
2021/03/24 10:11:08;;;;;;;4.65;2.80;;;;;;;2.24;69.41;99619.41;5031837;28;20029;-44
2021/03/24 10:13:39;;;;;;;6.25;3.20;;;;;;;2.49;69.32;99633.53;5048426;28;20036;-43
2021/03/24 10:16:11;;;;;;;5.95;3.22;;;;;;;2.41;68.63;99628.25;5032617;28;20059;-44
2021/03/24 10:18:55;;;;;;;6.97;3.35;;;;;;;2.85;67.61;99630.81;5053497;28;20520;-44
2021/03/24 10:21:23;;;;;;;5.60;3.20;;;;;;;2.94;65.64;99632.50;5036684;28;20049;-45
2021/03/24 10:24:03;;;;;;;4.43;3.38;;;;;;;2.92;65.20;99639.72;5052013;28;20033;-45
2021/03/24 10:26:47;;;;;;;4.63;3.20;;;;;;;3.19;64.67;99632.63;5036044;28;20036;-45
2021/03/24 10:29:15;;;;;;;4.55;3.30;;;;;;;3.28;64.71;99642.19;5051740;28;20048;-45
2021/03/24 10:31:53;;;;;;;5.65;3.53;;;;;;;3.56;63.63;99643.75;5051378;28;20212;-43
2021/03/24 10:34:23;;;;;;;6.40;3.83;;;;;;;3.31;64.04;99648.94;5051760;28;20390;-43
2021/03/24 10:37:18;;;;;;;5.80;3.20;;;;;;;2.98;63.89;99640.91;5053140;28;20102;-43
2021/03/24 10:40:01;;;;;;;5.35;3.10;;;;;;;2.92;62.45;99652.06;5026455;28;20036;-43
2021/03/24 10:42:51;;;;;;;5.45;3.55;;;;;;;2.91;62.79;99645.97;5053133;28;20040;-43
2021/03/24 10:45:44;;;;;;;5.47;3.80;;;;;;;3.30;63.66;99647.31;5052849;28;20036;-57
2021/03/24 10:48:19;;;;;;;7.80;4.10;;;;;;;3.91;65.24;99651.41;5051356;28;20020;-56
2021/03/24 10:51:02;;;;;;;8.70;4.63;;;;;;;3.17;65.41;99666.16;5052917;28;20045;-44
2021/03/24 10:53:29;;;;;;;6.20;3.50;;;;;;;3.70;61.37;99649.22;5052684;28;20025;-43
2021/03/24 10:56:27;;;;;;;7.40;3.50;;;;;;;4.35;60.79;99658.19;5052799;28;20044;-56
2021/03/24 10:59:12;;;;;;;6.20;3.83;;;;;;;3.98;58.66;99669.16;5045658;28;20135;-56
2021/03/24 11:01:41;;;;;;;5.93;3.67;;;;;;;4.19;57.03;99656.38;5051519;28;20017;-56
2021/03/24 11:04:46;;;;;;;6.00;3.88;;;;;;;4.46;58.07;99657.03;5052464;28;20082;-56
2021/03/24 11:07:16;;;;;;;5.28;3.40;;;;;;;4.65;56.25;99661.13;5051371;28;20130;-57
2021/03/24 11:10:00;;;;;;;5.50;2.95;;;;;;;4.32;56.51;99650.59;5051405;28;20055;-56
2021/03/24 11:12:45;;;;;;;5.68;3.20;;;;;;;4.11;58.04;99666.88;5052654;28;20408;-55
2021/03/24 11:15:49;;;;;;;6.55;3.55;;;;;;;3.87;60.90;99655.34;5051321;28;20108;-56
2021/03/24 11:18:18;;;;;;;6.43;4.00;;;;;;;3.86;61.86;99647.59;5050786;28;20060;-55
2021/03/24 11:20:46;;;;;;;7.30;3.65;;;;;;;3.42;63.56;99647.84;5051266;28;20484;-58
2021/03/24 11:23:18;;;;;;;5.57;3.45;;;;;;;3.91;62.19;99651.41;5034770;28;20032;-56
2021/03/24 11:25:51;;;;;;;6.80;2.83;;;;;;;3.83;61.11;99648.75;5050730;28;20021;-46
2021/03/24 11:28:37;;;;;;;6.95;3.13;;;;;;;3.85;61.43;99644.16;5051035;28;20184;-43
2021/03/24 11:31:15;;;;;;;6.38;3.13;;;;;;;4.16;59.63;99654.06;5050912;28;20031;-41
2021/03/24 11:33:53;;;;;;;5.03;3.33;;;;;;;4.07;58.36;99642.72;5034204;28;20048;-40
2021/03/24 11:36:34;;;;;;;6.00;3.80;;;;;;;3.73;62.14;99648.06;5035426;28;20086;-38
2021/03/24 11:39:20;;;;;;;5.28;3.90;;;;;;;3.52;61.59;99648.50;5052584;28;20025;-39
2021/03/24 11:41:45;;;;;;;4.32;3.00;;;;;;;3.54;56.83;99646.53;5050776;28;20107;-39
2021/03/24 11:44:12;;;;;;;6.75;3.63;;;;;;;3.28;61.27;99628.22;5050521;28;20029;-39
2021/03/24 11:46:40;;;;;;;4.95;3.53;;;;;;;2.97;62.03;99634.03;5052115;28;20033;-38
2021/03/24 11:49:18;;;;;;;4.68;3.15;;;;;;;2.79;62.63;99628.00;5048639;28;20394;-38
2021/03/24 11:51:59;;;;;;;5.65;3.40;;;;;;;2.85;65.00;99630.00;5040479;28;20120;-39
2021/03/24 11:54:27;;;;;;;6.82;3.67;;;;;;;3.16;63.33;99630.31;5023758;28;20025;-37
2021/03/24 11:57:14;;;;;;;4.28;2.90;;;;;;;3.20;60.71;99631.66;5036997;28;20029;-38
2021/03/24 11:59:51;;;;;;;5.63;3.33;;;;;;;3.50;58.50;99619.75;5041848;28;20028;-39
2021/03/24 12:02:41;;;;;;;5.65;3.40;;;;;;;2.81;62.29;99629.47;5054303;28;20040;-38
2021/03/24 12:05:21;;;;;;;6.57;3.35;;;;;;;2.97;62.35;99630.53;5039562;28;20075;-38
2021/03/24 12:08:03;;;;;;;6.53;3.50;;;;;;;3.42;61.73;99626.78;5070253;28;20031;-38
2021/03/24 12:10:39;;;;;;;6.70;3.35;;;;;;;3.59;58.09;99620.56;5055093;28;20032;-39
2021/03/24 12:13:09;;;;;;;4.30;3.03;;;;;;;3.83;57.37;99619.00;5071413;28;20079;-38
2021/03/24 12:15:35;;;;;;;5.40;3.13;;;;;;;3.96;56.32;99619.34;5071288;28;20107;-39
2021/03/24 12:18:08;;;;;;;6.05;3.17;;;;;;;3.82;56.71;99612.88;5070792;28;20094;-38